createdAt,value
2019-05-19T00:00:11.425Z,92.57
2019-05-19T00:00:41.470Z,92.68
2019-05-19T00:01:11.410Z,92.68
2019-05-19T00:01:41.465Z,92.65
2019-05-19T00:02:11.405Z,92.59
2019-05-19T00:02:41.474Z,92.66
2019-05-19T00:03:11.410Z,92.63
2019-05-19T00:03:42.486Z,92.59
2019-05-19T00:04:11.407Z,92.63
2019-05-19T00:04:46.262Z,92.66
2019-05-19T00:05:11.413Z,92.73
2019-05-19T00:05:41.463Z,92.68
2019-05-19T00:06:11.408Z,92.73
2019-05-19T00:06:42.498Z,92.73
2019-05-19T00:07:11.407Z,92.67
2019-05-19T00:07:46.287Z,92.70
2019-05-19T00:08:11.430Z,92.76
2019-05-19T00:08:41.474Z,92.79
2019-05-19T00:09:11.409Z,92.87
2019-05-19T00:09:41.480Z,92.92
2019-05-19T00:10:11.408Z,93.00
2019-05-19T00:10:41.462Z,93.00
2019-05-19T00:11:11.404Z,93.08
2019-05-19T00:11:41.471Z,93.10
2019-05-19T00:12:11.406Z,93.12
2019-05-19T00:12:41.468Z,93.17
2019-05-19T00:13:11.405Z,93.19
2019-05-19T00:13:41.476Z,93.18
2019-05-19T00:14:12.435Z,93.18
2019-05-19T00:14:41.481Z,93.18
2019-05-19T00:15:16.211Z,93.17
2019-05-19T00:15:41.468Z,93.17
2019-05-19T00:16:11.439Z,93.10
2019-05-19T00:16:41.472Z,93.13
2019-05-19T00:17:12.443Z,93.15
2019-05-19T00:17:41.470Z,93.19
2019-05-19T00:18:16.210Z,93.13
2019-05-19T00:18:41.476Z,93.17
2019-05-19T00:19:25.705Z,93.15
2019-05-19T00:19:41.470Z,93.09
2019-05-19T00:20:11.411Z,93.09
2019-05-19T00:20:41.470Z,93.05
2019-05-19T00:21:11.408Z,93.05
2019-05-19T00:21:41.469Z,93.05
2019-05-19T00:22:11.411Z,93.04
2019-05-19T00:22:41.479Z,93.03
2019-05-19T00:23:11.412Z,93.01
2019-05-19T00:23:41.480Z,93.02
2019-05-19T00:24:11.410Z,92.99
2019-05-19T00:24:41.481Z,92.97
2019-05-19T00:25:11.413Z,93.01
2019-05-19T00:25:45.181Z,92.99
2019-05-19T00:26:11.410Z,92.88
2019-05-19T00:26:41.466Z,92.85
2019-05-19T00:27:11.406Z,92.81
2019-05-19T00:27:42.617Z,92.81
2019-05-19T00:28:11.412Z,92.81
2019-05-19T00:28:46.270Z,92.84
2019-05-19T00:29:11.413Z,92.93
2019-05-19T00:29:41.471Z,92.95
2019-05-19T00:30:11.428Z,92.91
2019-05-19T00:30:41.475Z,92.95
2019-05-19T00:31:11.417Z,92.95
2019-05-19T00:31:41.486Z,92.98
2019-05-19T00:32:11.414Z,92.94
2019-05-19T00:32:41.483Z,92.95
2019-05-19T00:33:11.427Z,92.93
2019-05-19T00:33:41.476Z,92.97
2019-05-19T00:34:11.422Z,92.98
2019-05-19T00:34:41.473Z,92.96
2019-05-19T00:35:12.457Z,92.93
2019-05-19T00:35:41.473Z,92.93
2019-05-19T00:36:16.210Z,92.86
2019-05-19T00:36:41.479Z,92.88
2019-05-19T00:37:11.419Z,92.89
2019-05-19T00:37:41.473Z,92.88
2019-05-19T00:38:12.435Z,92.88
2019-05-19T00:38:41.482Z,92.87
2019-05-19T00:39:16.195Z,92.87
2019-05-19T00:39:41.472Z,92.81
2019-05-19T00:40:11.419Z,92.67
2019-05-19T00:40:42.494Z,92.62
2019-05-19T00:41:11.409Z,92.60
2019-05-19T00:41:41.478Z,92.66
2019-05-19T00:42:11.417Z,92.71
2019-05-19T00:42:41.474Z,92.70
2019-05-19T00:43:11.421Z,92.71
2019-05-19T00:43:41.478Z,92.72
2019-05-19T00:44:11.433Z,92.75
2019-05-19T00:44:41.488Z,92.82
2019-05-19T00:45:11.419Z,92.84
2019-05-19T00:45:42.487Z,92.86
2019-05-19T00:46:11.424Z,92.87
2019-05-19T00:46:45.200Z,92.89
2019-05-19T00:47:11.416Z,92.89
2019-05-19T00:47:41.514Z,92.92
2019-05-19T00:48:11.422Z,92.92
2019-05-19T00:48:42.596Z,92.90
2019-05-19T00:49:11.422Z,92.86
2019-05-19T00:49:46.273Z,92.85
2019-05-19T00:50:11.417Z,92.84
2019-05-19T00:50:41.475Z,92.84
2019-05-19T00:51:11.414Z,92.80
2019-05-19T00:51:41.478Z,92.81
2019-05-19T00:52:11.421Z,92.79
2019-05-19T00:52:41.487Z,92.81
2019-05-19T00:53:11.411Z,92.81
2019-05-19T00:53:41.480Z,92.73
2019-05-19T00:54:11.419Z,92.78
2019-05-19T00:54:41.486Z,92.74
2019-05-19T00:55:11.450Z,92.71
2019-05-19T00:55:41.477Z,92.71
2019-05-19T00:56:12.435Z,92.73
2019-05-19T00:56:41.473Z,92.73
2019-05-19T00:57:16.193Z,92.79
2019-05-19T00:57:41.479Z,92.78
2019-05-19T00:58:11.412Z,92.76
2019-05-19T00:58:41.477Z,92.80
2019-05-19T00:59:12.479Z,92.79
2019-05-19T00:59:41.486Z,92.75
2019-05-19T01:00:16.247Z,92.75
2019-05-19T01:00:41.483Z,92.73
2019-05-19T01:01:11.440Z,92.75
2019-05-19T01:01:41.480Z,92.74
2019-05-19T01:02:11.423Z,92.73
2019-05-19T01:02:41.501Z,92.73
2019-05-19T01:03:11.428Z,92.68
2019-05-19T01:03:41.489Z,92.62
2019-05-19T01:04:11.421Z,92.63
2019-05-19T01:04:41.490Z,92.58
2019-05-19T01:05:11.422Z,92.54
2019-05-19T01:05:41.484Z,92.37
2019-05-19T01:06:11.427Z,92.23
2019-05-19T01:06:42.506Z,92.11
2019-05-19T01:07:11.445Z,92.09
2019-05-19T01:07:46.279Z,92.07
2019-05-19T01:08:11.421Z,92.07
2019-05-19T01:08:41.487Z,92.07
2019-05-19T01:09:11.423Z,92.15
2019-05-19T01:09:42.640Z,92.17
2019-05-19T01:10:11.422Z,92.18
2019-05-19T01:10:46.315Z,92.21
2019-05-19T01:11:11.419Z,92.21
2019-05-19T01:11:41.483Z,92.23
2019-05-19T01:12:11.421Z,92.21
2019-05-19T01:12:41.483Z,92.25
2019-05-19T01:13:11.418Z,92.27
2019-05-19T01:13:41.484Z,92.29
2019-05-19T01:14:15.211Z,92.22
2019-05-19T01:14:49.388Z,92.18
2019-05-19T01:15:11.443Z,92.12
2019-05-19T01:15:41.489Z,92.23
2019-05-19T01:16:11.420Z,92.30
2019-05-19T01:16:41.506Z,92.37
2019-05-19T01:17:12.439Z,92.42
2019-05-19T01:17:41.492Z,92.46
2019-05-19T01:18:16.221Z,92.44
2019-05-19T01:18:41.486Z,92.48
2019-05-19T01:19:11.427Z,92.48
2019-05-19T01:19:55.103Z,92.53
2019-05-19T01:20:12.457Z,92.51
2019-05-19T01:20:41.496Z,92.58
2019-05-19T01:21:16.231Z,92.60
2019-05-19T01:21:41.502Z,92.56
2019-05-19T01:22:11.423Z,92.59
2019-05-19T01:22:41.480Z,92.60
2019-05-19T01:23:11.429Z,92.61
2019-05-19T01:23:41.509Z,92.61
2019-05-19T01:24:11.421Z,92.65
2019-05-19T01:24:41.485Z,92.65
2019-05-19T01:25:11.514Z,92.69
2019-05-19T01:25:41.492Z,92.70
2019-05-19T01:26:11.427Z,92.64
2019-05-19T01:26:41.481Z,92.65
2019-05-19T01:27:11.426Z,92.66
2019-05-19T01:27:41.497Z,92.62
2019-05-19T01:28:11.438Z,92.66
2019-05-19T01:28:46.289Z,92.64
2019-05-19T01:29:11.423Z,92.59
2019-05-19T01:29:41.490Z,92.61
2019-05-19T01:30:11.426Z,92.64
2019-05-19T01:30:42.504Z,92.63
2019-05-19T01:31:11.434Z,92.62
2019-05-19T01:31:46.298Z,92.57
2019-05-19T01:32:11.437Z,92.51
2019-05-19T01:32:41.501Z,92.50
2019-05-19T01:33:11.428Z,92.47
2019-05-19T01:33:41.497Z,92.48
2019-05-19T01:34:11.438Z,92.47
2019-05-19T01:34:41.489Z,92.49
2019-05-19T01:35:11.435Z,92.49
2019-05-19T01:35:41.489Z,92.47
2019-05-19T01:36:11.430Z,92.55
2019-05-19T01:36:42.505Z,92.56
2019-05-19T01:37:11.434Z,92.54
2019-05-19T01:37:41.487Z,92.53
2019-05-19T01:38:11.429Z,92.52
2019-05-19T01:38:41.493Z,92.51
2019-05-19T01:39:16.236Z,92.46
2019-05-19T01:39:41.493Z,92.47
2019-05-19T01:40:11.439Z,92.43
2019-05-19T01:40:41.502Z,92.53
2019-05-19T01:41:12.493Z,92.52
2019-05-19T01:41:41.492Z,92.54
2019-05-19T01:42:16.242Z,92.55
2019-05-19T01:42:41.514Z,92.58
2019-05-19T01:43:11.430Z,92.56
2019-05-19T01:43:41.497Z,92.57
2019-05-19T01:44:11.429Z,92.58
2019-05-19T01:44:41.490Z,92.53
2019-05-19T01:45:11.438Z,92.54
2019-05-19T01:45:41.516Z,92.54
2019-05-19T01:46:11.433Z,92.57
2019-05-19T01:46:41.491Z,92.57
2019-05-19T01:47:11.432Z,92.56
2019-05-19T01:47:41.494Z,92.57
2019-05-19T01:48:11.433Z,92.60
2019-05-19T01:48:41.494Z,92.56
2019-05-19T01:49:11.436Z,92.55
2019-05-19T01:49:46.278Z,92.54
2019-05-19T01:50:18.215Z,92.52
2019-05-19T01:50:41.494Z,92.56
2019-05-19T01:51:11.437Z,92.58
2019-05-19T01:51:42.668Z,92.53
2019-05-19T01:52:11.446Z,92.52
2019-05-19T01:52:46.302Z,92.52
2019-05-19T01:53:11.446Z,92.53
2019-05-19T01:53:41.495Z,92.56
2019-05-19T01:54:11.434Z,92.56
2019-05-19T01:54:41.496Z,92.57
2019-05-19T01:55:11.440Z,92.64
2019-05-19T01:55:41.492Z,92.64
2019-05-19T01:56:11.433Z,92.63
2019-05-19T01:56:41.500Z,92.64
2019-05-19T01:57:11.434Z,92.65
2019-05-19T01:57:41.491Z,92.64
2019-05-19T01:58:11.434Z,92.65
2019-05-19T01:58:41.489Z,92.62
2019-05-19T01:59:12.458Z,92.63
2019-05-19T01:59:41.496Z,92.61
2019-05-19T02:00:16.234Z,92.58
2019-05-19T02:00:41.503Z,92.60
2019-05-19T02:01:11.441Z,92.56
2019-05-19T02:01:41.490Z,92.61
2019-05-19T02:02:12.462Z,92.57
2019-05-19T02:02:41.495Z,92.59
2019-05-19T02:03:16.241Z,92.64
2019-05-19T02:03:41.497Z,92.66
2019-05-19T02:04:11.443Z,92.66
2019-05-19T02:04:41.499Z,92.64
2019-05-19T02:05:11.443Z,92.67
2019-05-19T02:05:41.495Z,92.68
2019-05-19T02:06:11.448Z,92.67
2019-05-19T02:06:41.497Z,92.72
2019-05-19T02:07:11.445Z,92.71
2019-05-19T02:07:41.518Z,92.72
2019-05-19T02:08:11.433Z,92.71
2019-05-19T02:08:41.506Z,92.80
2019-05-19T02:09:11.435Z,92.78
2019-05-19T02:09:41.498Z,92.83
2019-05-19T02:10:11.447Z,92.83
2019-05-19T02:10:45.231Z,92.83
2019-05-19T02:11:11.441Z,92.82
2019-05-19T02:11:41.520Z,92.83
2019-05-19T02:12:11.438Z,92.80
2019-05-19T02:12:42.570Z,92.83
2019-05-19T02:13:11.435Z,92.83
2019-05-19T02:13:46.323Z,92.85
2019-05-19T02:14:11.442Z,92.85
2019-05-19T02:14:41.502Z,92.81
2019-05-19T02:15:11.475Z,92.82
2019-05-19T02:15:41.503Z,92.85
2019-05-19T02:16:11.434Z,92.88
2019-05-19T02:16:41.587Z,92.85
2019-05-19T02:17:11.437Z,92.84
2019-05-19T02:17:41.495Z,92.86
2019-05-19T02:18:11.442Z,92.87
2019-05-19T02:18:41.504Z,92.86
2019-05-19T02:19:11.450Z,92.89
2019-05-19T02:19:41.508Z,92.87
2019-05-19T02:20:12.468Z,92.88
2019-05-19T02:20:41.503Z,92.92
2019-05-19T02:21:16.221Z,92.93
2019-05-19T02:21:41.504Z,92.91
2019-05-19T02:22:11.448Z,92.95
2019-05-19T02:22:41.507Z,92.94
2019-05-19T02:23:12.472Z,93.01
2019-05-19T02:23:41.500Z,93.01
2019-05-19T02:24:15.262Z,92.95
2019-05-19T02:24:41.503Z,92.99
2019-05-19T02:25:11.440Z,93.03
2019-05-19T02:25:41.511Z,93.00
2019-05-19T02:26:11.442Z,93.02
2019-05-19T02:26:41.508Z,93.01
2019-05-19T02:27:11.454Z,93.01
2019-05-19T02:27:41.506Z,93.07
2019-05-19T02:28:11.448Z,93.10
2019-05-19T02:28:41.504Z,93.07
2019-05-19T02:29:11.448Z,93.09
2019-05-19T02:29:41.503Z,93.05
2019-05-19T02:30:11.469Z,93.07
2019-05-19T02:30:43.236Z,93.06
2019-05-19T02:31:11.447Z,93.06
2019-05-19T02:31:46.287Z,93.05
2019-05-19T02:32:11.455Z,93.07
2019-05-19T02:32:41.516Z,93.03
2019-05-19T02:33:11.446Z,93.05
2019-05-19T02:33:42.564Z,93.09
2019-05-19T02:34:11.446Z,93.03
2019-05-19T02:34:46.296Z,93.05
2019-05-19T02:35:11.454Z,93.04
2019-05-19T02:35:41.519Z,93.04
2019-05-19T02:36:11.457Z,93.00
2019-05-19T02:36:41.509Z,92.99
2019-05-19T02:37:11.456Z,92.99
2019-05-19T02:37:41.509Z,93.02
2019-05-19T02:38:11.453Z,93.02
2019-05-19T02:38:41.515Z,92.98
2019-05-19T02:39:11.451Z,92.92
2019-05-19T02:39:41.503Z,92.92
2019-05-19T02:40:11.463Z,92.89
2019-05-19T02:40:41.504Z,92.90
2019-05-19T02:41:11.446Z,92.86
2019-05-19T02:41:41.507Z,92.83
2019-05-19T02:42:15.192Z,92.84
2019-05-19T02:42:41.517Z,92.79
2019-05-19T02:43:11.449Z,92.77
2019-05-19T02:43:41.507Z,92.74
2019-05-19T02:44:12.485Z,92.71
2019-05-19T02:44:41.544Z,92.70
2019-05-19T02:45:16.252Z,92.70
2019-05-19T02:45:41.511Z,92.68
2019-05-19T02:46:11.445Z,92.69
2019-05-19T02:46:41.521Z,92.67
2019-05-19T02:47:11.445Z,92.65
2019-05-19T02:47:41.515Z,92.67
2019-05-19T02:48:11.452Z,92.66
2019-05-19T02:48:41.509Z,92.68
2019-05-19T02:49:11.459Z,92.70
2019-05-19T02:49:41.513Z,92.69
2019-05-19T02:50:11.454Z,92.70
2019-05-19T02:50:51.924Z,92.73
2019-05-19T02:51:11.454Z,92.77
2019-05-19T02:51:41.507Z,92.76
2019-05-19T02:52:11.459Z,92.74
2019-05-19T02:52:45.250Z,92.70
2019-05-19T02:53:11.453Z,92.71
2019-05-19T02:53:41.508Z,92.72
2019-05-19T02:54:11.452Z,92.71
2019-05-19T02:54:42.533Z,92.60
2019-05-19T02:55:11.455Z,92.59
2019-05-19T02:55:45.220Z,92.65
2019-05-19T02:56:11.455Z,92.62
2019-05-19T02:56:41.511Z,92.65
2019-05-19T02:57:11.453Z,92.66
2019-05-19T02:57:41.527Z,92.63
2019-05-19T02:58:11.447Z,92.72
2019-05-19T02:58:41.512Z,92.72
2019-05-19T02:59:11.450Z,92.77
2019-05-19T02:59:41.509Z,92.77
2019-05-19T03:00:11.451Z,92.79
2019-05-19T03:00:41.510Z,92.85
2019-05-19T03:01:11.454Z,92.90
2019-05-19T03:01:41.513Z,92.92
2019-05-19T03:02:11.453Z,92.94
2019-05-19T03:02:41.511Z,92.99
2019-05-19T03:03:15.184Z,92.98
2019-05-19T03:03:41.534Z,92.96
2019-05-19T03:04:11.454Z,92.98
2019-05-19T03:04:41.512Z,92.99
2019-05-19T03:05:12.473Z,93.04
2019-05-19T03:05:41.517Z,93.06
2019-05-19T03:06:16.262Z,93.10
2019-05-19T03:06:41.514Z,93.02
2019-05-19T03:07:11.457Z,93.07
2019-05-19T03:07:41.516Z,93.09
2019-05-19T03:08:11.463Z,93.06
2019-05-19T03:08:41.514Z,93.06
2019-05-19T03:09:11.462Z,92.99
2019-05-19T03:09:41.514Z,92.90
2019-05-19T03:10:11.460Z,92.84
2019-05-19T03:10:41.516Z,92.74
2019-05-19T03:11:11.458Z,92.74
2019-05-19T03:11:41.522Z,92.72
2019-05-19T03:12:11.454Z,92.74
2019-05-19T03:12:41.519Z,92.83
2019-05-19T03:13:11.453Z,92.82
2019-05-19T03:13:45.217Z,92.86
2019-05-19T03:14:11.462Z,92.89
2019-05-19T03:14:41.513Z,92.83
2019-05-19T03:15:11.466Z,92.79
2019-05-19T03:15:42.639Z,92.76
2019-05-19T03:16:11.452Z,92.75
2019-05-19T03:16:46.361Z,92.78
2019-05-19T03:17:11.512Z,92.77
2019-05-19T03:17:41.516Z,92.78
2019-05-19T03:18:11.464Z,92.77
2019-05-19T03:18:41.512Z,92.75
2019-05-19T03:19:11.487Z,92.75
2019-05-19T03:19:41.517Z,92.68
2019-05-19T03:20:11.462Z,92.69
2019-05-19T03:20:41.513Z,92.66
2019-05-19T03:21:12.488Z,92.61
2019-05-19T03:21:41.521Z,92.59
2019-05-19T03:22:11.461Z,92.55
2019-05-19T03:22:41.517Z,92.51
2019-05-19T03:23:12.482Z,92.45
2019-05-19T03:23:41.525Z,92.45
2019-05-19T03:24:16.351Z,92.43
2019-05-19T03:24:41.520Z,92.44
2019-05-19T03:25:11.457Z,92.40
2019-05-19T03:25:44.300Z,92.36
2019-05-19T03:26:12.489Z,92.30
2019-05-19T03:26:41.513Z,92.32
2019-05-19T03:27:15.195Z,92.33
2019-05-19T03:27:41.513Z,92.31
2019-05-19T03:28:11.459Z,92.30
2019-05-19T03:28:41.525Z,92.21
2019-05-19T03:29:11.461Z,92.24
2019-05-19T03:29:41.516Z,92.23
2019-05-19T03:30:11.457Z,92.08
2019-05-19T03:30:41.521Z,91.96
2019-05-19T03:31:11.473Z,91.82
2019-05-19T03:31:41.524Z,91.80
2019-05-19T03:32:13.597Z,91.80
2019-05-19T03:32:41.522Z,91.85
2019-05-19T03:33:11.470Z,91.88
2019-05-19T03:33:41.524Z,91.96
2019-05-19T03:34:11.463Z,92.05
2019-05-19T03:34:46.322Z,92.07
2019-05-19T03:35:11.466Z,92.13
2019-05-19T03:35:41.521Z,92.17
2019-05-19T03:36:11.531Z,92.16
2019-05-19T03:36:42.638Z,92.14
2019-05-19T03:37:11.467Z,92.16
2019-05-19T03:37:45.175Z,92.13
2019-05-19T03:38:11.463Z,92.11
2019-05-19T03:38:41.526Z,92.08
2019-05-19T03:39:11.469Z,92.06
2019-05-19T03:39:41.528Z,92.01
2019-05-19T03:40:11.471Z,91.98
2019-05-19T03:40:41.531Z,91.96
2019-05-19T03:41:11.458Z,91.97
2019-05-19T03:41:41.522Z,91.93
2019-05-19T03:42:11.459Z,91.83
2019-05-19T03:42:41.529Z,91.83
2019-05-19T03:43:11.472Z,91.73
2019-05-19T03:43:41.526Z,91.68
2019-05-19T03:44:11.464Z,91.63
2019-05-19T03:44:41.531Z,91.58
2019-05-19T03:45:16.271Z,91.62
2019-05-19T03:45:41.522Z,91.70
2019-05-19T03:46:11.468Z,91.73
2019-05-19T03:46:41.518Z,91.80
2019-05-19T03:47:12.492Z,91.88
2019-05-19T03:47:41.524Z,91.86
2019-05-19T03:48:16.273Z,91.94
2019-05-19T03:48:41.527Z,91.97
2019-05-19T03:49:11.471Z,92.04
2019-05-19T03:49:41.532Z,92.12
2019-05-19T03:50:11.461Z,92.09
2019-05-19T03:50:41.535Z,92.14
2019-05-19T03:51:29.094Z,92.14
2019-05-19T03:51:41.530Z,92.17
2019-05-19T03:52:11.465Z,92.23
2019-05-19T03:52:41.554Z,92.23
2019-05-19T03:53:11.468Z,92.27
2019-05-19T03:53:41.523Z,92.26
2019-05-19T03:54:11.463Z,92.28
2019-05-19T03:54:41.528Z,92.25
2019-05-19T03:55:11.491Z,92.09
2019-05-19T03:55:46.318Z,91.94
2019-05-19T03:56:11.467Z,91.90
2019-05-19T03:56:41.529Z,91.87
2019-05-19T03:57:11.471Z,91.93
2019-05-19T03:57:41.594Z,91.96
2019-05-19T03:58:11.467Z,91.94
2019-05-19T03:58:46.331Z,91.99
2019-05-19T03:59:11.466Z,91.86
2019-05-19T03:59:41.532Z,91.78
2019-05-19T04:00:11.469Z,91.69
2019-05-19T04:00:41.533Z,91.77
2019-05-19T04:01:11.469Z,91.82
2019-05-19T04:01:41.534Z,91.86
2019-05-19T04:02:11.464Z,91.89
2019-05-19T04:02:41.528Z,91.92
2019-05-19T04:03:11.465Z,91.94
2019-05-19T04:03:41.534Z,91.99
2019-05-19T04:04:11.471Z,91.99
2019-05-19T04:04:41.528Z,91.96
2019-05-19T04:05:11.477Z,91.98
2019-05-19T04:05:41.524Z,91.93
2019-05-19T04:06:15.273Z,91.85
2019-05-19T04:06:41.534Z,91.86
2019-05-19T04:07:12.488Z,91.99
2019-05-19T04:07:41.532Z,92.01
2019-05-19T04:08:11.639Z,91.99
2019-05-19T04:08:41.532Z,91.97
2019-05-19T04:09:18.329Z,91.88
2019-05-19T04:09:41.537Z,91.76
2019-05-19T04:10:11.529Z,91.71
2019-05-19T04:10:41.533Z,91.70
2019-05-19T04:11:11.471Z,91.82
2019-05-19T04:11:41.537Z,91.74
2019-05-19T04:12:11.479Z,91.83
2019-05-19T04:12:41.537Z,91.91
2019-05-19T04:13:11.473Z,91.98
2019-05-19T04:13:41.538Z,92.04
2019-05-19T04:14:11.473Z,92.08
2019-05-19T04:14:41.550Z,92.14
2019-05-19T04:15:11.475Z,92.17
2019-05-19T04:15:41.542Z,92.22
2019-05-19T04:16:11.544Z,92.28
2019-05-19T04:16:46.324Z,92.27
2019-05-19T04:17:11.469Z,92.31
2019-05-19T04:17:41.533Z,92.32
2019-05-19T04:18:11.478Z,92.39
2019-05-19T04:18:42.558Z,92.38
2019-05-19T04:19:11.473Z,92.45
2019-05-19T04:19:46.345Z,92.44
2019-05-19T04:20:11.476Z,92.43
2019-05-19T04:20:41.640Z,92.43
2019-05-19T04:21:11.479Z,92.43
2019-05-19T04:21:48.543Z,92.42
2019-05-19T04:22:11.475Z,92.46
2019-05-19T04:22:41.535Z,92.47
2019-05-19T04:23:11.486Z,92.51
2019-05-19T04:23:41.542Z,92.51
2019-05-19T04:24:11.478Z,92.55
2019-05-19T04:24:41.533Z,92.57
2019-05-19T04:25:11.474Z,92.57
2019-05-19T04:25:41.539Z,92.59
2019-05-19T04:26:11.483Z,92.64
2019-05-19T04:26:41.535Z,92.65
2019-05-19T04:27:16.263Z,92.66
2019-05-19T04:27:41.535Z,92.66
2019-05-19T04:28:11.471Z,92.66
2019-05-19T04:28:41.543Z,92.64
2019-05-19T04:29:12.492Z,92.63
2019-05-19T04:29:41.540Z,92.63
2019-05-19T04:30:16.271Z,92.66
2019-05-19T04:30:41.538Z,92.68
2019-05-19T04:31:11.486Z,92.70
2019-05-19T04:31:41.534Z,92.71
2019-05-19T04:32:11.473Z,92.77
2019-05-19T04:32:41.543Z,92.81
2019-05-19T04:33:11.473Z,92.83
2019-05-19T04:33:41.530Z,92.90
2019-05-19T04:34:11.487Z,92.89
2019-05-19T04:34:41.539Z,92.88
2019-05-19T04:35:11.481Z,92.87
2019-05-19T04:35:41.556Z,92.86
2019-05-19T04:36:11.478Z,92.88
2019-05-19T04:36:41.539Z,92.88
2019-05-19T04:37:11.482Z,92.81
2019-05-19T04:37:45.200Z,92.80
2019-05-19T04:38:11.479Z,92.84
2019-05-19T04:38:41.534Z,92.89
2019-05-19T04:39:11.482Z,92.92
2019-05-19T04:39:41.538Z,92.98
2019-05-19T04:40:11.488Z,93.01
2019-05-19T04:40:46.350Z,93.02
2019-05-19T04:41:11.493Z,93.04
2019-05-19T04:41:41.533Z,93.01
2019-05-19T04:42:11.482Z,92.99
2019-05-19T04:42:41.542Z,92.99
2019-05-19T04:43:11.487Z,93.01
2019-05-19T04:43:41.541Z,93.00
2019-05-19T04:44:11.483Z,92.96
2019-05-19T04:44:41.552Z,93.00
2019-05-19T04:45:11.486Z,92.98
2019-05-19T04:45:41.538Z,93.00
2019-05-19T04:46:11.480Z,93.01
2019-05-19T04:46:41.601Z,92.99
2019-05-19T04:47:11.479Z,92.99
2019-05-19T04:47:41.550Z,92.95
2019-05-19T04:48:15.235Z,93.00
2019-05-19T04:48:41.538Z,93.00
2019-05-19T04:49:11.482Z,92.96
2019-05-19T04:49:41.544Z,93.00
2019-05-19T04:50:11.486Z,93.04
2019-05-19T04:50:41.541Z,93.00
2019-05-19T04:51:16.278Z,92.98
2019-05-19T04:51:41.557Z,92.87
2019-05-19T04:52:11.490Z,92.88
2019-05-19T04:52:41.540Z,92.83
2019-05-19T04:53:11.483Z,92.87
2019-05-19T04:53:41.541Z,92.84
2019-05-19T04:54:11.495Z,92.75
2019-05-19T04:54:41.541Z,92.54
2019-05-19T04:55:11.482Z,92.33
2019-05-19T04:55:41.549Z,92.37
2019-05-19T04:56:11.486Z,92.35
2019-05-19T04:56:41.550Z,92.40
2019-05-19T04:57:11.488Z,92.39
2019-05-19T04:57:41.540Z,92.39
2019-05-19T04:58:11.486Z,92.47
2019-05-19T04:58:45.201Z,92.48
2019-05-19T04:59:11.493Z,92.47
2019-05-19T04:59:41.542Z,92.48
2019-05-19T05:00:11.485Z,92.50
2019-05-19T05:00:42.566Z,92.54
2019-05-19T05:01:11.486Z,92.59
2019-05-19T05:01:45.334Z,92.65
2019-05-19T05:02:11.586Z,92.68
2019-05-19T05:02:41.546Z,92.66
2019-05-19T05:03:11.478Z,92.68
2019-05-19T05:03:41.540Z,92.66
2019-05-19T05:04:11.489Z,92.65
2019-05-19T05:04:41.550Z,92.69
2019-05-19T05:05:11.488Z,92.68
2019-05-19T05:05:41.544Z,92.65
2019-05-19T05:06:11.557Z,92.63
2019-05-19T05:06:41.548Z,92.57
2019-05-19T05:07:11.485Z,92.47
2019-05-19T05:07:41.544Z,92.23
2019-05-19T05:08:28.381Z,92.04
2019-05-19T05:08:41.554Z,92.04
2019-05-19T05:09:16.282Z,91.78
2019-05-19T05:09:41.546Z,91.54
2019-05-19T05:10:11.493Z,91.43
2019-05-19T05:10:41.557Z,91.37
2019-05-19T05:11:11.493Z,91.27
2019-05-19T05:11:41.548Z,91.30
2019-05-19T05:12:16.298Z,91.20
2019-05-19T05:12:41.555Z,91.24
2019-05-19T05:13:11.484Z,91.31
2019-05-19T05:13:41.555Z,91.26
2019-05-19T05:14:11.490Z,91.22
2019-05-19T05:14:41.690Z,91.31
2019-05-19T05:15:11.480Z,91.37
2019-05-19T05:15:41.548Z,91.51
2019-05-19T05:16:11.487Z,91.48
2019-05-19T05:16:41.548Z,91.52
2019-05-19T05:17:11.483Z,91.45
2019-05-19T05:17:41.544Z,91.54
2019-05-19T05:18:11.488Z,91.63
2019-05-19T05:18:41.538Z,91.63
2019-05-19T05:19:11.482Z,91.69
2019-05-19T05:19:45.258Z,91.75
2019-05-19T05:20:11.483Z,91.76
2019-05-19T05:20:41.547Z,91.74
2019-05-19T05:21:11.485Z,91.69
2019-05-19T05:21:42.571Z,91.64
2019-05-19T05:22:21.524Z,91.68
2019-05-19T05:22:46.351Z,91.71
2019-05-19T05:23:11.500Z,91.84
2019-05-19T05:23:41.546Z,91.81
2019-05-19T05:24:11.492Z,91.84
2019-05-19T05:24:41.547Z,91.69
2019-05-19T05:25:11.494Z,91.62
2019-05-19T05:25:41.551Z,91.64
2019-05-19T05:26:11.490Z,91.76
2019-05-19T05:26:41.551Z,91.84
2019-05-19T05:27:11.554Z,91.74
2019-05-19T05:27:41.556Z,91.70
2019-05-19T05:28:11.493Z,91.79
2019-05-19T05:28:41.552Z,91.75
2019-05-19T05:29:11.492Z,91.81
2019-05-19T05:29:41.552Z,91.84
2019-05-19T05:30:15.251Z,91.74
2019-05-19T05:30:41.556Z,91.77
2019-05-19T05:31:11.490Z,91.78
2019-05-19T05:31:41.549Z,91.86
2019-05-19T05:32:11.486Z,91.91
2019-05-19T05:32:41.546Z,91.97
2019-05-19T05:33:16.319Z,91.98
2019-05-19T05:33:41.552Z,91.95
2019-05-19T05:34:11.490Z,91.90
2019-05-19T05:34:41.545Z,91.80
2019-05-19T05:35:11.486Z,91.85
2019-05-19T05:35:41.555Z,91.79
2019-05-19T05:36:11.509Z,91.73
2019-05-19T05:36:41.550Z,91.75
2019-05-19T05:37:11.492Z,91.74
2019-05-19T05:37:41.569Z,91.81
2019-05-19T05:38:11.491Z,91.86
2019-05-19T05:38:41.550Z,91.87
2019-05-19T05:39:11.495Z,91.85
2019-05-19T05:39:41.654Z,91.78
2019-05-19T05:40:11.517Z,91.66
2019-05-19T05:40:45.257Z,91.61
2019-05-19T05:41:11.495Z,91.57
2019-05-19T05:41:41.561Z,91.66
2019-05-19T05:42:11.493Z,91.61
2019-05-19T05:42:41.553Z,91.58
2019-05-19T05:43:11.492Z,91.56
2019-05-19T05:43:46.354Z,91.52
2019-05-19T05:44:11.495Z,91.51
2019-05-19T05:44:41.551Z,91.55
2019-05-19T05:45:11.510Z,91.60
2019-05-19T05:45:41.562Z,91.56
2019-05-19T05:46:11.496Z,91.64
2019-05-19T05:46:41.560Z,91.72
2019-05-19T05:47:11.499Z,91.81
2019-05-19T05:47:41.557Z,91.92
2019-05-19T05:48:11.506Z,91.94
2019-05-19T05:48:41.555Z,91.92
2019-05-19T05:49:11.488Z,91.84
2019-05-19T05:49:41.553Z,91.81
2019-05-19T05:50:11.491Z,91.69
2019-05-19T05:50:41.563Z,91.60
2019-05-19T05:51:15.249Z,91.59
2019-05-19T05:51:41.557Z,91.63
2019-05-19T05:52:11.494Z,91.72
2019-05-19T05:52:41.562Z,91.78
2019-05-19T05:53:11.495Z,91.74
2019-05-19T05:53:41.555Z,91.70
2019-05-19T05:54:16.327Z,91.51
2019-05-19T05:54:41.560Z,91.44
2019-05-19T05:55:11.499Z,91.41
2019-05-19T05:55:41.559Z,91.47
2019-05-19T05:56:11.498Z,91.52
2019-05-19T05:56:41.565Z,91.60
2019-05-19T05:57:11.517Z,91.64
2019-05-19T05:57:41.559Z,91.70
2019-05-19T05:58:11.496Z,91.82
2019-05-19T05:58:41.568Z,91.80
2019-05-19T05:59:11.499Z,91.84
2019-05-19T05:59:41.563Z,91.84
2019-05-19T06:00:11.541Z,91.84
2019-05-19T06:00:41.559Z,91.94
2019-05-19T06:01:11.501Z,91.99
2019-05-19T06:01:45.213Z,91.83
2019-05-19T06:02:11.496Z,91.76
2019-05-19T06:02:41.561Z,91.76
2019-05-19T06:03:11.497Z,91.59
2019-05-19T06:03:41.560Z,91.55
2019-05-19T06:04:11.498Z,91.52
2019-05-19T06:04:45.343Z,91.53
2019-05-19T06:05:11.502Z,91.55
2019-05-19T06:05:41.578Z,91.53
2019-05-19T06:06:11.528Z,91.53
2019-05-19T06:06:41.571Z,91.59
2019-05-19T06:07:11.500Z,91.68
2019-05-19T06:07:41.563Z,91.64
2019-05-19T06:08:11.502Z,91.73
2019-05-19T06:08:41.570Z,91.75
2019-05-19T06:09:11.496Z,91.78
2019-05-19T06:09:41.566Z,91.81
2019-05-19T06:10:11.503Z,91.86
2019-05-19T06:10:41.567Z,91.78
2019-05-19T06:11:11.501Z,91.76
2019-05-19T06:11:41.565Z,91.80
2019-05-19T06:12:16.281Z,91.81
2019-05-19T06:12:41.586Z,91.81
2019-05-19T06:13:11.506Z,91.88
2019-05-19T06:13:41.565Z,91.83
2019-05-19T06:14:12.519Z,91.80
2019-05-19T06:14:41.561Z,91.77
2019-05-19T06:15:16.653Z,91.72
2019-05-19T06:15:41.564Z,91.63
2019-05-19T06:16:11.505Z,91.59
2019-05-19T06:16:41.566Z,91.58
2019-05-19T06:17:11.508Z,91.45
2019-05-19T06:17:41.579Z,91.45
2019-05-19T06:18:11.508Z,91.31
2019-05-19T06:18:41.576Z,91.30
2019-05-19T06:19:11.783Z,91.38
2019-05-19T06:19:41.563Z,91.43
2019-05-19T06:20:11.503Z,91.51
2019-05-19T06:20:41.571Z,91.54
2019-05-19T06:21:11.497Z,91.46
2019-05-19T06:21:41.564Z,91.37
2019-05-19T06:22:11.527Z,91.31
2019-05-19T06:22:56.227Z,91.24
2019-05-19T06:23:11.518Z,91.26
2019-05-19T06:23:41.565Z,91.27
2019-05-19T06:24:11.521Z,91.22
2019-05-19T06:24:41.563Z,91.15
2019-05-19T06:25:11.512Z,91.10
2019-05-19T06:25:45.374Z,91.18
2019-05-19T06:26:11.506Z,91.37